首页
METAR-TAF:

METAR-TAF

机场 :

Havre City-County Airport

哈佛, 蒙大拿州, 美国

纬度: 48-32-34N, 经度: 109-45-48W, 海拔: 789米

当前天气观测

该预报发布于19分钟前的13:53 UTC
风速7节,风向西南
温度 13°C
湿度 72%
气压 1020 hPa
能見度: 16.1公里
天空无云

METAR: KHVR 211353Z AUTO 23007KT 10SM CLR 13/08 A3011 RMK AO2 SLP189 T01280083

时间: 08:12 (14:12 UTC)

预报

该预报发布于2小时和35分钟前的11:37 UTC
预报有效从21日的 12点(UTC)到 22日的 12点(UTC)
风速6节,风向多变
能見度: 10公里
天空无云
从 21日的 1400点(UTC)
风速9节,风向西转西南
能見度: 10公里
散云层高于25000英尺

TAF: KHVR 211137Z 2112/2212 VRB06KT P6SM SKC FM211400 24009KT P6SM SCT250

超过4000个机场的气象观测和天气预报(METAR&TAF报告)。

可查询的气象台以黄色和红色小点在地图上表示。

将鼠标移到小点上方,可查看气象台名称。

然后点击查看天气观测和预报。

如需切换地图:点击带黑十字的绿色按钮放大地图;点击带横线的绿色按钮缩小地图;或者点击绿色箭头查看邻近地区的地图。


METAR-TAF: